Terminal Aerodrome Forecast
Issued by NWS

Home | Current Version | Previous Version | Text Only | Print | Product List | Glossary On
Versions: 1 2 3 4 5 6 7 8 9 10 11 12 13 14 15 16
000
FTUS43 KIWX 191144
TAFSBN
TAF
KSBN 191144Z 1912/2012 09003KT 5SM -SHRA BR SCT050 OVC100
     FM191400 10005KT P6SM BKN015
     FM192000 09005KT P6SM BKN040
     FM200500 VRB02KT 2SM BR BKN004
      TEMPO 2008/2012 1/2SM FG VV002=

USA.gov is the U.S. government's official web portal to all federal, state and local government web resources and services.